createdAt,value
2022-07-30T00:01:14.150Z,101916.38
2022-07-30T00:03:40.712Z,101914.06
2022-07-30T00:06:07.220Z,101910.91
2022-07-30T00:08:34.005Z,101916.66
2022-07-30T00:11:00.434Z,101909.97
2022-07-30T00:13:26.925Z,101913.94
2022-07-30T00:15:54.271Z,101903.53
2022-07-30T00:18:21.825Z,101900.34
2022-07-30T00:20:49.099Z,101906.66
2022-07-30T00:23:15.513Z,101893.94
2022-07-30T00:25:42.004Z,101887.63
2022-07-30T00:28:08.482Z,101882.56
2022-07-30T00:30:34.912Z,101886.44
2022-07-30T00:33:01.850Z,101874.88
2022-07-30T00:35:28.436Z,101877.69
2022-07-30T00:37:54.877Z,101879.81
2022-07-30T00:40:21.456Z,101869.91
2022-07-30T00:42:48.370Z,101879.63
2022-07-30T00:45:16.565Z,101876.13
2022-07-30T00:47:43.679Z,101871.38
2022-07-30T00:50:11.994Z,101866.44
2022-07-30T00:52:39.660Z,101868.72
2022-07-30T00:55:09.166Z,101861.88
2022-07-30T00:57:35.749Z,101861.59
2022-07-30T01:00:03.655Z,101855.66
2022-07-30T01:02:30.121Z,101854.41
2022-07-30T01:04:56.640Z,101851.50
2022-07-30T01:07:23.984Z,101851.78
2022-07-30T01:09:53.715Z,101855.78
2022-07-30T01:12:23.830Z,101859.84
2022-07-30T01:14:50.382Z,101856.72
2022-07-30T01:17:16.808Z,101853.91
2022-07-30T01:19:55.972Z,101847.81
2022-07-30T01:22:30.630Z,101849.03
2022-07-30T01:25:03.584Z,101854.56
2022-07-30T01:27:33.430Z,101855.72
2022-07-30T01:30:02.383Z,101853.47
2022-07-30T01:32:30.465Z,101863.06
2022-07-30T01:34:59.410Z,101863.06
2022-07-30T01:37:26.939Z,101857.06
2022-07-30T01:39:54.701Z,101849.72
2022-07-30T01:42:24.874Z,101852.06
2022-07-30T01:44:51.701Z,101855.34
2022-07-30T01:47:20.691Z,101865.72
2022-07-30T01:49:49.448Z,101858.03
2022-07-30T01:52:17.877Z,101857.41
2022-07-30T01:54:46.617Z,101854.91
2022-07-30T01:57:14.410Z,101851.41
2022-07-30T01:59:43.461Z,101858.41
2022-07-30T02:02:09.879Z,101853.38
2022-07-30T02:04:36.364Z,101842.25
2022-07-30T02:07:10.420Z,101845.06
2022-07-30T02:09:47.195Z,101859.22
2022-07-30T02:12:29.031Z,101854.75
2022-07-30T02:15:35.071Z,101854.00
2022-07-30T02:18:13.600Z,101859.66
2022-07-30T02:21:00.305Z,101858.06
2022-07-30T02:23:32.126Z,101861.63
2022-07-30T02:26:00.678Z,101859.88
2022-07-30T02:28:28.865Z,101870.53
2022-07-30T02:30:59.033Z,101865.09
2022-07-30T02:33:33.389Z,101868.97
2022-07-30T02:36:00.875Z,101861.78
2022-07-30T02:38:28.779Z,101863.75
2022-07-30T02:40:59.217Z,101865.53
2022-07-30T02:43:27.556Z,101857.66
2022-07-30T02:46:02.791Z,101859.38
2022-07-30T02:48:34.441Z,101862.84
2022-07-30T02:51:04.071Z,101853.22
2022-07-30T02:53:32.282Z,101857.91
2022-07-30T02:56:00.598Z,101855.41
2022-07-30T02:58:28.433Z,101853.94
2022-07-30T03:00:57.085Z,101858.09
2022-07-30T03:03:29.408Z,101856.91
2022-07-30T03:05:57.783Z,101857.28
2022-07-30T03:08:27.618Z,101855.44
2022-07-30T03:10:55.767Z,101866.66
2022-07-30T03:13:24.384Z,101858.81
2022-07-30T03:15:52.727Z,101853.84
2022-07-30T03:18:21.213Z,101856.84
2022-07-30T03:20:51.346Z,101858.00
2022-07-30T03:23:19.648Z,101859.03
2022-07-30T03:25:51.485Z,101861.25
2022-07-30T03:28:23.366Z,101861.44
2022-07-30T03:30:51.724Z,101864.94
2022-07-30T03:33:19.816Z,101867.38
2022-07-30T03:35:47.596Z,101862.81
2022-07-30T03:38:15.306Z,101861.75
2022-07-30T03:40:42.967Z,101856.50
2022-07-30T03:43:18.355Z,101860.19
2022-07-30T03:45:58.564Z,101854.66
2022-07-30T03:48:25.866Z,101863.00
2022-07-30T03:50:54.091Z,101857.66
2022-07-30T03:53:24.911Z,101859.16
2022-07-30T03:55:52.911Z,101858.78
2022-07-30T03:58:19.686Z,101858.56
2022-07-30T04:00:50.421Z,101861.72
2022-07-30T04:03:27.919Z,101866.78
2022-07-30T04:05:54.867Z,101865.22
2022-07-30T04:08:21.367Z,101878.59
2022-07-30T04:10:49.264Z,101873.16
2022-07-30T04:13:15.942Z,101874.91
2022-07-30T04:16:40.510Z,101874.22
2022-07-30T04:18:42.624Z,101869.97
2022-07-30T04:21:16.088Z,101870.00
2022-07-30T04:24:02.923Z,101875.75
2022-07-30T04:26:33.026Z,101867.03
2022-07-30T04:29:00.660Z,101869.81
2022-07-30T04:31:28.475Z,101867.38
2022-07-30T04:33:55.337Z,101871.25
2022-07-30T04:36:25.302Z,101867.09
2022-07-30T04:38:51.770Z,101862.53
2022-07-30T04:41:18.256Z,101869.69
2022-07-30T04:43:44.721Z,101867.38
2022-07-30T04:46:11.173Z,101872.16
2022-07-30T04:48:37.597Z,101868.38
2022-07-30T04:51:07.867Z,101868.22
2022-07-30T04:53:35.340Z,101872.72
2022-07-30T04:56:04.162Z,101873.06
2022-07-30T04:58:33.593Z,101882.69
2022-07-30T05:01:01.868Z,101885.47
2022-07-30T05:03:30.335Z,101878.25
2022-07-30T05:05:57.790Z,101884.81
2022-07-30T05:08:25.116Z,101882.75
2022-07-30T05:10:51.578Z,101884.50
2022-07-30T05:13:20.019Z,101883.59
2022-07-30T05:15:49.105Z,101890.19
2022-07-30T05:18:15.601Z,101886.41
2022-07-30T05:20:42.145Z,101894.94
2022-07-30T05:23:08.719Z,101884.41
2022-07-30T05:25:35.118Z,101893.69
2022-07-30T05:28:01.534Z,101892.59
2022-07-30T05:30:27.992Z,101900.59
2022-07-30T05:32:56.089Z,101898.78
2022-07-30T05:35:22.680Z,101901.44
2022-07-30T05:37:49.163Z,101908.03
2022-07-30T05:40:15.649Z,101907.09
2022-07-30T05:42:42.063Z,101907.94
2022-07-30T05:45:08.981Z,101917.72
2022-07-30T05:47:35.350Z,101920.28
2022-07-30T05:50:04.952Z,101917.38
2022-07-30T05:52:31.889Z,101916.59
2022-07-30T05:54:58.340Z,101923.75
2022-07-30T05:57:24.829Z,101925.63
2022-07-30T05:59:51.265Z,101925.63
2022-07-30T06:02:17.780Z,101919.81
2022-07-30T06:04:46.140Z,101926.69
2022-07-30T06:07:12.824Z,101930.16
2022-07-30T06:09:39.252Z,101931.28
2022-07-30T06:12:05.908Z,101927.25
2022-07-30T06:14:32.462Z,101931.78
2022-07-30T06:16:59.339Z,101928.41
2022-07-30T06:19:26.360Z,101939.03
2022-07-30T06:22:05.959Z,101924.63
2022-07-30T06:24:33.637Z,101931.56
2022-07-30T06:27:00.766Z,101938.03
2022-07-30T06:29:27.359Z,101933.28
2022-07-30T06:31:53.735Z,101936.38
2022-07-30T06:34:20.210Z,101934.72
2022-07-30T06:36:46.703Z,101935.56
2022-07-30T06:39:13.172Z,101930.44
2022-07-30T06:41:40.693Z,101938.66
2022-07-30T06:44:07.117Z,101933.44
2022-07-30T06:46:33.604Z,101933.09
2022-07-30T06:49:00.084Z,101937.75
2022-07-30T06:51:27.264Z,101941.22
2022-07-30T06:53:53.729Z,101934.13
2022-07-30T06:56:20.137Z,101941.44
2022-07-30T06:58:46.598Z,101932.38
2022-07-30T07:01:13.122Z,101928.78
2022-07-30T07:03:40.718Z,101928.06
2022-07-30T07:06:07.661Z,101926.69
2022-07-30T07:08:36.553Z,101930.53
2022-07-30T07:11:03.605Z,101923.72
2022-07-30T07:13:30.146Z,101917.88
2022-07-30T07:15:57.913Z,101921.03
2022-07-30T07:18:24.335Z,101929.22
2022-07-30T07:20:50.840Z,101922.56
2022-07-30T07:23:19.660Z,101919.53
2022-07-30T07:25:47.272Z,101919.09
2022-07-30T07:28:13.886Z,101908.19
2022-07-30T07:30:44.097Z,101911.38
2022-07-30T07:33:10.727Z,101914.34
2022-07-30T07:35:48.718Z,101916.19
2022-07-30T07:38:17.983Z,101915.06
2022-07-30T07:40:44.492Z,101927.00
2022-07-30T07:43:10.881Z,101922.16
2022-07-30T07:45:37.451Z,101927.78
2022-07-30T07:48:04.383Z,101924.88
2022-07-30T07:50:30.843Z,101931.56
2022-07-30T07:52:57.281Z,101927.31
2022-07-30T07:55:24.485Z,101927.75
2022-07-30T07:57:52.322Z,101934.72
2022-07-30T08:00:20.762Z,101931.22
2022-07-30T08:02:48.236Z,101938.59
2022-07-30T08:05:15.031Z,101944.75
2022-07-30T08:07:43.012Z,101944.38
2022-07-30T08:10:11.001Z,101941.50
2022-07-30T08:12:37.485Z,101937.13
2022-07-30T08:15:04.237Z,101933.13
2022-07-30T08:17:30.657Z,101945.41
2022-07-30T08:20:01.017Z,101938.78
2022-07-30T08:22:27.822Z,101951.22
2022-07-30T08:24:54.262Z,101947.56
2022-07-30T08:27:20.732Z,101946.16
2022-07-30T08:29:47.175Z,101941.06
2022-07-30T08:32:13.628Z,101942.53
2022-07-30T08:34:40.062Z,101941.44
2022-07-30T08:37:06.509Z,101945.97
2022-07-30T08:39:32.933Z,101946.91
2022-07-30T08:42:03.726Z,101945.19
2022-07-30T08:44:32.322Z,101954.34
2022-07-30T08:47:00.041Z,101957.47
2022-07-30T08:49:27.597Z,101961.78
2022-07-30T08:51:54.808Z,101957.31
2022-07-30T08:54:21.493Z,101965.00
2022-07-30T08:56:49.966Z,101970.34
2022-07-30T08:59:19.621Z,101967.28
2022-07-30T09:01:46.077Z,101973.16
2022-07-30T09:04:12.549Z,101978.63
2022-07-30T09:06:40.941Z,101971.38
2022-07-30T09:09:09.544Z,101977.09
2022-07-30T09:11:36.356Z,101970.56
2022-07-30T09:14:15.163Z,101959.88
2022-07-30T09:16:43.653Z,101965.78
2022-07-30T09:19:18.425Z,101967.75
2022-07-30T09:22:01.635Z,101958.16
2022-07-30T09:24:28.483Z,101965.56
2022-07-30T09:27:01.127Z,101960.91
2022-07-30T09:29:29.596Z,101948.41
2022-07-30T09:32:01.578Z,101960.25
2022-07-30T09:34:38.816Z,101953.94
2022-07-30T09:37:26.125Z,101955.75
2022-07-30T09:39:56.307Z,101949.72
2022-07-30T09:42:29.075Z,101961.47
2022-07-30T09:45:09.350Z,101955.41
2022-07-30T09:47:41.523Z,101949.28
2022-07-30T09:50:11.143Z,101960.56
2022-07-30T09:52:44.224Z,101949.94
2022-07-30T09:55:15.455Z,101949.81
2022-07-30T09:58:00.197Z,101946.50
2022-07-30T10:00:30.492Z,101948.16
2022-07-30T10:02:57.641Z,101955.22
2022-07-30T10:05:24.926Z,101946.09
2022-07-30T10:07:54.573Z,101951.78
2022-07-30T10:10:25.509Z,101954.75
2022-07-30T10:12:58.199Z,101956.00
2022-07-30T10:15:29.036Z,101952.25
2022-07-30T10:17:56.786Z,101950.53
2022-07-30T10:20:24.150Z,101949.59
2022-07-30T10:22:51.359Z,101955.41
2022-07-30T10:25:28.062Z,101957.31
2022-07-30T10:27:58.099Z,101961.53
2022-07-30T10:30:27.743Z,101965.00
2022-07-30T10:32:57.503Z,101963.53
2022-07-30T10:35:34.200Z,101965.69
2022-07-30T10:38:02.481Z,101967.91
2022-07-30T10:40:40.360Z,101967.81
2022-07-30T10:43:22.402Z,101972.63
2022-07-30T10:46:38.185Z,101968.84
2022-07-30T10:49:18.742Z,101961.13
2022-07-30T10:51:51.368Z,101960.38
2022-07-30T10:54:36.659Z,101963.09
2022-07-30T10:57:15.074Z,101971.53
2022-07-30T10:59:49.514Z,101965.31
2022-07-30T11:02:17.772Z,101969.47
2022-07-30T11:04:44.469Z,101963.28
2022-07-30T11:07:24.090Z,101966.03
2022-07-30T11:10:03.960Z,101964.56
2022-07-30T11:12:41.403Z,101964.72
2022-07-30T11:15:19.053Z,101965.13
2022-07-30T11:18:12.453Z,101959.91
2022-07-30T11:20:40.706Z,101959.84
2022-07-30T11:23:19.658Z,101965.91
2022-07-30T11:25:52.016Z,101959.16
2022-07-30T11:28:35.688Z,101950.44
2022-07-30T11:31:10.149Z,101956.75
2022-07-30T11:33:37.316Z,101949.47
2022-07-30T11:36:07.825Z,101949.59
2022-07-30T11:39:01.149Z,101947.69
2022-07-30T11:41:33.460Z,101948.88
2022-07-30T11:44:28.703Z,101950.91
2022-07-30T11:46:55.532Z,101961.38
2022-07-30T11:49:22.367Z,101957.75
2022-07-30T11:51:49.960Z,101958.59
2022-07-30T11:54:16.440Z,101957.41
2022-07-30T11:57:04.118Z,101966.66
2022-07-30T11:59:31.101Z,101965.38
2022-07-30T12:02:01.528Z,101969.38
2022-07-30T12:04:28.368Z,101963.56
2022-07-30T12:06:54.888Z,101965.28
2022-07-30T12:09:23.793Z,101971.88
2022-07-30T12:11:54.641Z,101977.50
2022-07-30T12:14:21.104Z,101967.75
2022-07-30T12:16:52.950Z,101963.97
2022-07-30T12:19:19.605Z,101965.38
2022-07-30T12:21:50.946Z,101967.28
2022-07-30T12:24:25.035Z,101976.47
2022-07-30T12:26:51.537Z,101967.56
2022-07-30T12:29:18.210Z,101964.50
2022-07-30T12:31:46.083Z,101971.53
2022-07-30T12:34:26.223Z,101964.72
2022-07-30T12:36:53.530Z,101976.84
2022-07-30T12:39:24.810Z,101962.81
2022-07-30T12:41:53.853Z,101975.94
2022-07-30T12:44:39.259Z,101965.72
2022-07-30T12:47:17.781Z,101979.47
2022-07-30T12:49:48.767Z,101975.91
2022-07-30T12:52:28.589Z,101969.50
2022-07-30T12:55:03.475Z,101965.63
2022-07-30T12:57:56.198Z,101971.50
2022-07-30T13:00:25.039Z,101965.72
2022-07-30T13:02:52.169Z,101959.88
2022-07-30T13:05:18.671Z,101971.84
2022-07-30T13:07:55.459Z,101964.50
2022-07-30T13:10:24.225Z,101976.63
2022-07-30T13:12:53.709Z,101958.63
2022-07-30T13:15:21.473Z,101962.94
2022-07-30T13:17:48.977Z,101953.06
2022-07-30T13:20:16.572Z,101952.06
2022-07-30T13:22:43.460Z,101949.44
2022-07-30T13:25:10.793Z,101954.47
2022-07-30T13:27:37.636Z,101953.47
2022-07-30T13:30:05.528Z,101951.81
2022-07-30T13:32:32.097Z,101946.00
2022-07-30T13:35:01.435Z,101938.25
2022-07-30T13:37:37.884Z,101939.66
2022-07-30T13:40:06.968Z,101948.16
2022-07-30T13:42:33.657Z,101938.59
2022-07-30T13:45:00.263Z,101933.09
2022-07-30T13:47:26.710Z,101937.53
2022-07-30T13:49:53.297Z,101941.00
2022-07-30T13:52:19.931Z,101933.28
2022-07-30T13:54:46.392Z,101936.00
2022-07-30T13:57:12.834Z,101928.59
2022-07-30T13:59:39.241Z,101925.88
2022-07-30T14:02:05.690Z,101929.97
2022-07-30T14:04:32.188Z,101932.22
2022-07-30T14:06:58.739Z,101934.94
2022-07-30T14:09:25.377Z,101934.59
2022-07-30T14:11:52.235Z,101934.47
2022-07-30T14:14:18.969Z,101917.00
2022-07-30T14:16:46.913Z,101927.06
2022-07-30T14:19:23.154Z,101929.91
2022-07-30T14:21:53.957Z,101928.63
2022-07-30T14:24:22.085Z,101928.56
2022-07-30T14:26:58.841Z,101931.53
2022-07-30T14:29:26.639Z,101923.25
2022-07-30T14:31:53.667Z,101926.97
2022-07-30T14:34:20.066Z,101924.13
2022-07-30T14:36:46.585Z,101917.03
2022-07-30T14:39:13.002Z,101912.06
2022-07-30T14:41:39.790Z,101912.91
2022-07-30T14:44:12.137Z,101910.41
2022-07-30T14:46:38.867Z,101906.06
2022-07-30T14:49:19.543Z,101907.66
2022-07-30T14:51:46.108Z,101907.25
2022-07-30T14:54:12.564Z,101904.19
2022-07-30T14:56:39.405Z,101895.50
2022-07-30T14:59:06.013Z,101899.63
2022-07-30T15:01:32.459Z,101905.00
2022-07-30T15:03:59.596Z,101902.28
2022-07-30T15:06:26.835Z,101899.84
2022-07-30T15:08:53.510Z,101906.94
2022-07-30T15:11:21.248Z,101909.03
2022-07-30T15:13:50.235Z,101907.91
2022-07-30T15:16:17.596Z,101911.97
2022-07-30T15:18:44.848Z,101907.34
2022-07-30T15:21:12.399Z,101906.56
2022-07-30T15:23:38.915Z,101906.91
2022-07-30T15:26:05.347Z,101905.34
2022-07-30T15:28:31.793Z,101897.44
2022-07-30T15:30:58.331Z,101896.28
2022-07-30T15:33:24.751Z,101902.31
2022-07-30T15:35:51.202Z,101903.31
2022-07-30T15:38:17.642Z,101911.78
2022-07-30T15:40:44.247Z,101911.78
2022-07-30T15:43:13.272Z,101902.75
2022-07-30T15:45:55.561Z,101914.47
2022-07-30T15:48:24.783Z,101904.44
2022-07-30T15:51:00.850Z,101911.44
2022-07-30T15:53:27.305Z,101909.13
2022-07-30T15:55:53.941Z,101910.59
2022-07-30T15:58:20.365Z,101911.69
2022-07-30T16:00:47.105Z,101915.44
2022-07-30T16:03:13.574Z,101917.78
2022-07-30T16:05:51.316Z,101908.63
2022-07-30T16:08:19.134Z,101902.53
2022-07-30T16:10:45.559Z,101908.47
2022-07-30T16:13:12.050Z,101907.66
2022-07-30T16:15:38.479Z,101907.78
2022-07-30T16:18:04.945Z,101893.16
2022-07-30T16:20:32.410Z,101901.22
2022-07-30T16:22:58.859Z,101889.94
2022-07-30T16:25:25.410Z,101885.16
2022-07-30T16:27:51.982Z,101881.25
2022-07-30T16:30:18.618Z,101884.19
2022-07-30T16:32:45.089Z,101882.84
2022-07-30T16:35:13.312Z,101888.38
2022-07-30T16:37:40.164Z,101883.28
2022-07-30T16:40:06.951Z,101881.78
2022-07-30T16:42:33.382Z,101886.91
2022-07-30T16:44:59.781Z,101877.84
2022-07-30T16:47:26.200Z,101871.00
2022-07-30T16:49:52.636Z,101863.88
2022-07-30T16:52:19.083Z,101861.63
2022-07-30T16:54:45.560Z,101866.06
2022-07-30T16:57:11.961Z,101859.22
2022-07-30T16:59:38.587Z,101854.50
2022-07-30T17:02:08.744Z,101855.09
2022-07-30T17:04:35.437Z,101847.84
2022-07-30T17:07:01.838Z,101838.59
2022-07-30T17:09:28.280Z,101844.78
2022-07-30T17:12:05.310Z,101845.13
2022-07-30T17:14:32.753Z,101839.88
2022-07-30T17:16:59.270Z,101837.88
2022-07-30T17:19:26.562Z,101835.88
2022-07-30T17:21:53.032Z,101827.19
2022-07-30T17:24:19.469Z,101818.63
2022-07-30T17:26:46.686Z,101821.22
2022-07-30T17:29:14.941Z,101823.06
2022-07-30T17:31:44.205Z,101818.72
2022-07-30T17:34:13.653Z,101817.50
2022-07-30T17:36:41.993Z,101821.06
2022-07-30T17:40:03.989Z,101834.13
2022-07-30T17:42:06.311Z,101831.41
2022-07-30T17:44:33.129Z,101825.50
2022-07-30T17:46:59.537Z,101820.28
2022-07-30T17:49:26.128Z,101825.78
2022-07-30T17:51:52.773Z,101817.41
2022-07-30T17:54:19.208Z,101814.78
2022-07-30T17:56:45.663Z,101808.13
2022-07-30T17:59:14.075Z,101808.72
2022-07-30T18:01:40.735Z,101811.47
2022-07-30T18:04:07.173Z,101803.53
2022-07-30T18:06:35.889Z,101807.59
2022-07-30T18:09:04.473Z,101807.72
2022-07-30T18:11:33.347Z,101805.25
2022-07-30T18:13:59.819Z,101802.94
2022-07-30T18:16:26.299Z,101803.09
2022-07-30T18:18:52.722Z,101797.88
2022-07-30T18:21:19.176Z,101806.56
2022-07-30T18:23:45.616Z,101803.09
2022-07-30T18:26:12.272Z,101803.53
2022-07-30T18:28:38.687Z,101801.94
2022-07-30T18:31:05.727Z,101799.47
2022-07-30T18:33:32.218Z,101800.22
2022-07-30T18:35:58.632Z,101800.94
2022-07-30T18:38:25.035Z,101801.66
2022-07-30T18:40:57.767Z,101803.97
2022-07-30T18:43:26.388Z,101807.44
2022-07-30T18:45:55.516Z,101807.28
2022-07-30T18:48:22.362Z,101815.38
2022-07-30T18:50:48.862Z,101820.28
2022-07-30T18:53:16.004Z,101811.63
2022-07-30T18:55:43.205Z,101812.19
2022-07-30T18:58:09.590Z,101820.72
2022-07-30T19:00:36.620Z,101828.22
2022-07-30T19:03:03.703Z,101830.34
2022-07-30T19:05:30.223Z,101825.41
2022-07-30T19:07:58.054Z,101825.00
2022-07-30T19:10:26.229Z,101825.56
2022-07-30T19:12:53.599Z,101830.47
2022-07-30T19:15:20.061Z,101823.38
2022-07-30T19:17:48.696Z,101819.03
2022-07-30T19:20:15.104Z,101822.78
2022-07-30T19:22:41.701Z,101812.94
2022-07-30T19:25:08.698Z,101814.22
2022-07-30T19:27:35.130Z,101818.41
2022-07-30T19:30:01.660Z,101813.94
2022-07-30T19:32:30.204Z,101821.53
2022-07-30T19:34:58.830Z,101815.44
2022-07-30T19:37:25.248Z,101818.34
2022-07-30T19:40:05.470Z,101817.16
2022-07-30T19:42:33.768Z,101824.91
2022-07-30T19:45:01.403Z,101810.34
2022-07-30T19:47:35.225Z,101820.31
2022-07-30T19:50:06.999Z,101819.00
2022-07-30T19:52:33.585Z,101818.53
2022-07-30T19:55:01.556Z,101816.06
2022-07-30T19:57:45.409Z,101818.47
2022-07-30T20:00:15.930Z,101820.41
2022-07-30T20:02:51.858Z,101816.38
2022-07-30T20:05:18.330Z,101837.94
2022-07-30T20:07:45.679Z,101829.78
2022-07-30T20:10:13.056Z,101837.69
2022-07-30T20:12:42.513Z,101841.16
2022-07-30T20:15:15.907Z,101842.22
2022-07-30T20:17:42.340Z,101830.81
2022-07-30T20:20:10.157Z,101831.06
2022-07-30T20:22:36.590Z,101842.44
2022-07-30T20:25:06.237Z,101838.94
2022-07-30T20:27:37.173Z,101845.28
2022-07-30T20:30:07.514Z,101852.53
2022-07-30T20:32:37.333Z,101860.56
2022-07-30T20:35:06.895Z,101859.97
2022-07-30T20:37:33.316Z,101856.25
2022-07-30T20:40:19.998Z,101854.38
2022-07-30T20:42:49.971Z,101846.88
2022-07-30T20:45:16.518Z,101852.00
2022-07-30T20:47:43.865Z,101845.63
2022-07-30T20:50:14.182Z,101848.13
2022-07-30T20:52:46.675Z,101848.97
2022-07-30T20:55:16.455Z,101844.34
2022-07-30T20:57:55.905Z,101851.72
2022-07-30T21:00:26.325Z,101846.25
2022-07-30T21:02:52.877Z,101846.63
2022-07-30T21:05:20.016Z,101851.38
2022-07-30T21:07:46.957Z,101843.28
2022-07-30T21:10:13.402Z,101852.13
2022-07-30T21:12:41.309Z,101842.31
2022-07-30T21:15:23.689Z,101845.28
2022-07-30T21:17:51.035Z,101847.03
2022-07-30T21:20:17.509Z,101837.69
2022-07-30T21:22:54.919Z,101834.09
2022-07-30T21:25:23.427Z,101835.81
2022-07-30T21:27:58.809Z,101835.19
2022-07-30T21:30:26.426Z,101831.72
2022-07-30T21:32:53.221Z,101828.00
2022-07-30T21:35:19.826Z,101831.47
2022-07-30T21:37:46.277Z,101832.22
2022-07-30T21:40:13.815Z,101828.84
2022-07-30T21:42:48.587Z,101822.25
2022-07-30T21:45:15.710Z,101827.09
2022-07-30T21:47:47.627Z,101820.16
2022-07-30T21:50:14.280Z,101827.50
2022-07-30T21:52:43.555Z,101825.78
2022-07-30T21:55:13.387Z,101812.22
2022-07-30T21:57:40.375Z,101815.69
2022-07-30T22:00:21.764Z,101820.16
2022-07-30T22:02:53.012Z,101816.56
2022-07-30T22:05:21.833Z,101814.09
2022-07-30T22:07:50.012Z,101814.09
2022-07-30T22:10:21.255Z,101818.31
2022-07-30T22:12:48.552Z,101822.16
2022-07-30T22:15:15.225Z,101818.09
2022-07-30T22:17:58.603Z,101816.88
2022-07-30T22:20:28.858Z,101823.59
2022-07-30T22:22:56.843Z,101825.72
2022-07-30T22:25:24.093Z,101815.63
2022-07-30T22:28:10.321Z,101806.97
2022-07-30T22:30:38.443Z,101815.41
2022-07-30T22:33:17.050Z,101798.38
2022-07-30T22:35:46.868Z,101798.03
2022-07-30T22:38:16.842Z,101802.28
2022-07-30T22:40:46.057Z,101801.81
2022-07-30T22:43:13.881Z,101789.97
2022-07-30T22:45:48.827Z,101792.13
2022-07-30T22:48:17.688Z,101797.09
2022-07-30T22:50:48.528Z,101790.97
2022-07-30T22:54:11.063Z,101791.47
2022-07-30T22:56:05.675Z,101790.84
2022-07-30T22:58:32.143Z,101783.91
2022-07-30T23:00:58.617Z,101789.63
2022-07-30T23:03:25.177Z,101781.94
2022-07-30T23:05:56.197Z,101778.47
2022-07-30T23:08:30.159Z,101777.72
2022-07-30T23:10:57.413Z,101778.06
2022-07-30T23:13:23.851Z,101776.34
2022-07-30T23:15:50.285Z,101776.97
2022-07-30T23:18:16.754Z,101781.81
2022-07-30T23:20:43.285Z,101773.22
2022-07-30T23:23:11.456Z,101777.94
2022-07-30T23:25:38.986Z,101775.72
2022-07-30T23:28:05.746Z,101771.25
2022-07-30T23:30:34.086Z,101776.47
2022-07-30T23:33:01.028Z,101778.09
2022-07-30T23:35:27.488Z,101777.72
2022-07-30T23:37:53.946Z,101775.00
2022-07-30T23:40:20.354Z,101782.19
2022-07-30T23:42:50.940Z,101773.00
2022-07-30T23:45:17.866Z,101770.88
2022-07-30T23:47:55.945Z,101769.16
2022-07-30T23:50:31.649Z,101768.66
2022-07-30T23:52:58.247Z,101766.91
2022-07-30T23:55:24.992Z,101767.03
2022-07-30T23:57:51.596Z,101761.44
